Terminal Aerodrome Forecast
Issued by NWS Spokane, WA

Home | Current Version | Previous Version | Text Only | Print | Product List | Glossary On
Versions: 1 2 3 4 5 6 7 8 9 10 11 12 13 14 15
000
FTUS46 KOTX 240903 AAA
TAFGEG
TAF AMD
KGEG 240903Z 2409/2506 15004KT 6SM -SHSN FEW005 BKN025 OVC045
      TEMPO 2409/2413 4SM -SN BR BKN010 OVC025
     FM241300 18006KT 1SM -SN BR OVC015
     FM241900 28010KT P6SM BKN025
     FM250000 25009KT P6SM SCT025 BKN120=

USA.gov is the U.S. government's official web portal to all federal, state and local government web resources and services.